sensor_id;sensor_type;location;lat;lon;timestamp;P1;durP1;ratioP1;P2;durP2;ratioP2
1276;SDS011;631;51.024;13.826;2023-04-24T00:00:45;13.33;;;12.43;;
1276;SDS011;631;51.024;13.826;2023-04-24T00:03:11;12.97;;;12.17;;
1276;SDS011;631;51.024;13.826;2023-04-24T00:05:37;13.10;;;12.20;;
1276;SDS011;631;51.024;13.826;2023-04-24T00:08:05;13.03;;;12.23;;
1276;SDS011;631;51.024;13.826;2023-04-24T00:10:31;12.80;;;12.00;;
1276;SDS011;631;51.024;13.826;2023-04-24T00:12:56;12.83;;;12.03;;
1276;SDS011;631;51.024;13.826;2023-04-24T00:15:22;13.53;;;12.63;;
1276;SDS011;631;51.024;13.826;2023-04-24T00:17:48;13.73;;;12.83;;
1276;SDS011;631;51.024;13.826;2023-04-24T00:20:13;13.03;;;12.23;;
1276;SDS011;631;51.024;13.826;2023-04-24T00:22:39;13.67;;;12.87;;
1276;SDS011;631;51.024;13.826;2023-04-24T00:25:05;14.23;;;13.30;;
1276;SDS011;631;51.024;13.826;2023-04-24T00:27:31;13.10;;;12.30;;
1276;SDS011;631;51.024;13.826;2023-04-24T00:29:57;12.67;;;11.87;;
1276;SDS011;631;51.024;13.826;2023-04-24T00:32:22;12.97;;;12.17;;
1276;SDS011;631;51.024;13.826;2023-04-24T00:34:48;13.40;;;12.40;;
1276;SDS011;631;51.024;13.826;2023-04-24T00:37:14;13.27;;;12.30;;
1276;SDS011;631;51.024;13.826;2023-04-24T00:39:40;12.87;;;12.07;;
1276;SDS011;631;51.024;13.826;2023-04-24T00:42:05;13.10;;;12.30;;
1276;SDS011;631;51.024;13.826;2023-04-24T00:44:32;13.70;;;12.77;;
1276;SDS011;631;51.024;13.826;2023-04-24T00:46:59;13.30;;;12.50;;
1276;SDS011;631;51.024;13.826;2023-04-24T00:49:25;13.40;;;12.53;;
1276;SDS011;631;51.024;13.826;2023-04-24T00:51:51;13.03;;;12.23;;
1276;SDS011;631;51.024;13.826;2023-04-24T00:54:19;12.90;;;12.10;;
1276;SDS011;631;51.024;13.826;2023-04-24T00:56:45;13.73;;;12.83;;
1276;SDS011;631;51.024;13.826;2023-04-24T00:59:16;12.17;;;11.47;;
1276;SDS011;631;51.024;13.826;2023-04-24T01:01:43;13.10;;;12.30;;
1276;SDS011;631;51.024;13.826;2023-04-24T01:04:09;13.00;;;12.30;;
1276;SDS011;631;51.024;13.826;2023-04-24T01:06:37;13.50;;;12.70;;
1276;SDS011;631;51.024;13.826;2023-04-24T01:09:04;14.33;;;13.43;;
1276;SDS011;631;51.024;13.826;2023-04-24T01:11:32;13.17;;;12.27;;
1276;SDS011;631;51.024;13.826;2023-04-24T01:13:58;12.90;;;12.10;;
1276;SDS011;631;51.024;13.826;2023-04-24T01:16:24;13.80;;;13.00;;
1276;SDS011;631;51.024;13.826;2023-04-24T01:18:50;13.40;;;12.60;;
1276;SDS011;631;51.024;13.826;2023-04-24T01:21:16;13.70;;;12.80;;
1276;SDS011;631;51.024;13.826;2023-04-24T01:23:44;13.63;;;12.80;;
1276;SDS011;631;51.024;13.826;2023-04-24T01:26:10;13.57;;;12.67;;
1276;SDS011;631;51.024;13.826;2023-04-24T01:28:36;13.70;;;12.80;;
1276;SDS011;631;51.024;13.826;2023-04-24T01:31:02;13.80;;;12.90;;
1276;SDS011;631;51.024;13.826;2023-04-24T01:33:28;14.07;;;13.17;;
1276;SDS011;631;51.024;13.826;2023-04-24T01:35:53;14.20;;;13.10;;
1276;SDS011;631;51.024;13.826;2023-04-24T01:38:19;13.47;;;12.67;;
1276;SDS011;631;51.024;13.826;2023-04-24T01:40:45;14.27;;;13.37;;
1276;SDS011;631;51.024;13.826;2023-04-24T01:43:11;14.00;;;13.10;;
1276;SDS011;631;51.024;13.826;2023-04-24T01:45:38;13.97;;;12.73;;
1276;SDS011;631;51.024;13.826;2023-04-24T01:48:03;13.57;;;12.57;;
1276;SDS011;631;51.024;13.826;2023-04-24T01:50:29;13.50;;;12.60;;
1276;SDS011;631;51.024;13.826;2023-04-24T01:52:55;13.43;;;12.43;;
1276;SDS011;631;51.024;13.826;2023-04-24T01:55:21;13.57;;;12.67;;
1276;SDS011;631;51.024;13.826;2023-04-24T01:57:46;14.00;;;13.00;;
1276;SDS011;631;51.024;13.826;2023-04-24T02:00:12;12.77;;;11.93;;
1276;SDS011;631;51.024;13.826;2023-04-24T02:02:39;12.47;;;11.70;;
1276;SDS011;631;51.024;13.826;2023-04-24T02:05:06;14.20;;;13.10;;
1276;SDS011;631;51.024;13.826;2023-04-24T02:07:32;13.23;;;12.43;;
1276;SDS011;631;51.024;13.826;2023-04-24T02:09:58;13.63;;;12.73;;
1276;SDS011;631;51.024;13.826;2023-04-24T02:12:24;12.27;;;11.47;;
1276;SDS011;631;51.024;13.826;2023-04-24T02:14:49;13.33;;;12.40;;
1276;SDS011;631;51.024;13.826;2023-04-24T02:17:15;13.87;;;12.87;;
1276;SDS011;631;51.024;13.826;2023-04-24T02:19:41;12.80;;;12.00;;
1276;SDS011;631;51.024;13.826;2023-04-24T02:22:07;13.80;;;12.90;;
1276;SDS011;631;51.024;13.826;2023-04-24T02:24:33;12.20;;;11.40;;
1276;SDS011;631;51.024;13.826;2023-04-24T02:26:58;13.53;;;12.63;;
1276;SDS011;631;51.024;13.826;2023-04-24T02:29:25;13.80;;;12.90;;
1276;SDS011;631;51.024;13.826;2023-04-24T02:31:50;13.90;;;12.90;;
1276;SDS011;631;51.024;13.826;2023-04-24T02:34:16;13.70;;;12.90;;
1276;SDS011;631;51.024;13.826;2023-04-24T02:36:42;13.60;;;12.70;;
1276;SDS011;631;51.024;13.826;2023-04-24T02:39:07;14.03;;;13.07;;
1276;SDS011;631;51.024;13.826;2023-04-24T02:41:33;13.90;;;12.80;;
1276;SDS011;631;51.024;13.826;2023-04-24T02:43:58;13.20;;;12.30;;
1276;SDS011;631;51.024;13.826;2023-04-24T02:46:24;14.13;;;13.13;;
1276;SDS011;631;51.024;13.826;2023-04-24T02:48:50;14.00;;;13.00;;
1276;SDS011;631;51.024;13.826;2023-04-24T02:51:16;14.43;;;13.50;;
1276;SDS011;631;51.024;13.826;2023-04-24T02:53:42;14.53;;;13.43;;
1276;SDS011;631;51.024;13.826;2023-04-24T02:56:07;14.00;;;12.93;;
1276;SDS011;631;51.024;13.826;2023-04-24T02:58:33;14.00;;;13.00;;
1276;SDS011;631;51.024;13.826;2023-04-24T03:00:58;13.00;;;12.10;;
1276;SDS011;631;51.024;13.826;2023-04-24T03:03:25;12.40;;;11.53;;
1276;SDS011;631;51.024;13.826;2023-04-24T03:05:51;14.10;;;13.00;;
1276;SDS011;631;51.024;13.826;2023-04-24T03:08:16;12.83;;;11.73;;
1276;SDS011;631;51.024;13.826;2023-04-24T03:10:42;14.30;;;13.20;;
1276;SDS011;631;51.024;13.826;2023-04-24T03:13:08;14.20;;;13.10;;
1276;SDS011;631;51.024;13.826;2023-04-24T03:15:34;13.50;;;12.60;;
1276;SDS011;631;51.024;13.826;2023-04-24T03:17:59;13.33;;;12.40;;
1276;SDS011;631;51.024;13.826;2023-04-24T03:20:25;12.97;;;11.90;;
1276;SDS011;631;51.024;13.826;2023-04-24T03:22:51;13.20;;;12.20;;
1276;SDS011;631;51.024;13.826;2023-04-24T03:25:17;14.13;;;13.10;;
1276;SDS011;631;51.024;13.826;2023-04-24T03:27:42;14.60;;;13.50;;
1276;SDS011;631;51.024;13.826;2023-04-24T03:30:08;14.70;;;13.27;;
1276;SDS011;631;51.024;13.826;2023-04-24T03:32:34;13.97;;;12.93;;
1276;SDS011;631;51.024;13.826;2023-04-24T03:35:00;13.77;;;12.60;;
1276;SDS011;631;51.024;13.826;2023-04-24T03:37:25;14.37;;;13.27;;
1276;SDS011;631;51.024;13.826;2023-04-24T03:39:51;14.70;;;13.60;;
1276;SDS011;631;51.024;13.826;2023-04-24T03:42:17;14.33;;;13.30;;
1276;SDS011;631;51.024;13.826;2023-04-24T03:44:43;14.30;;;13.40;;
1276;SDS011;631;51.024;13.826;2023-04-24T03:47:08;14.23;;;13.23;;
1276;SDS011;631;51.024;13.826;2023-04-24T03:49:34;15.63;;;14.43;;
1276;SDS011;631;51.024;13.826;2023-04-24T03:51:59;15.63;;;14.43;;
1276;SDS011;631;51.024;13.826;2023-04-24T03:54:25;14.87;;;13.77;;
1276;SDS011;631;51.024;13.826;2023-04-24T03:56:50;14.10;;;13.10;;
1276;SDS011;631;51.024;13.826;2023-04-24T03:59:16;14.20;;;13.10;;
1276;SDS011;631;51.024;13.826;2023-04-24T04:01:42;14.10;;;12.90;;
1276;SDS011;631;51.024;13.826;2023-04-24T04:04:07;15.27;;;14.17;;
1276;SDS011;631;51.024;13.826;2023-04-24T04:06:33;15.30;;;14.00;;
1276;SDS011;631;51.024;13.826;2023-04-24T04:08:59;14.50;;;13.40;;
1276;SDS011;631;51.024;13.826;2023-04-24T04:11:26;14.47;;;13.47;;
1276;SDS011;631;51.024;13.826;2023-04-24T04:13:51;15.27;;;13.97;;
1276;SDS011;631;51.024;13.826;2023-04-24T04:16:17;14.27;;;13.10;;
1276;SDS011;631;51.024;13.826;2023-04-24T04:18:43;14.57;;;13.30;;
1276;SDS011;631;51.024;13.826;2023-04-24T04:21:09;14.30;;;13.20;;
1276;SDS011;631;51.024;13.826;2023-04-24T04:23:35;12.37;;;11.37;;
1276;SDS011;631;51.024;13.826;2023-04-24T04:26:01;12.77;;;11.80;;
1276;SDS011;631;51.024;13.826;2023-04-24T04:28:28;13.80;;;12.80;;
1276;SDS011;631;51.024;13.826;2023-04-24T04:30:55;13.00;;;12.00;;
1276;SDS011;631;51.024;13.826;2023-04-24T04:33:22;10.63;;;10.03;;
1276;SDS011;631;51.024;13.826;2023-04-24T04:35:48;10.97;;;10.37;;
1276;SDS011;631;51.024;13.826;2023-04-24T04:38:14;10.87;;;10.27;;
1276;SDS011;631;51.024;13.826;2023-04-24T04:40:41;11.47;;;10.80;;
1276;SDS011;631;51.024;13.826;2023-04-24T04:43:07;12.23;;;11.50;;
1276;SDS011;631;51.024;13.826;2023-04-24T04:45:33;11.20;;;10.53;;
1276;SDS011;631;51.024;13.826;2023-04-24T04:47:59;11.10;;;10.40;;
1276;SDS011;631;51.024;13.826;2023-04-24T04:50:26;9.83;;;9.23;;
1276;SDS011;631;51.024;13.826;2023-04-24T04:52:52;12.10;;;11.40;;
1276;SDS011;631;51.024;13.826;2023-04-24T04:55:18;12.40;;;11.60;;
1276;SDS011;631;51.024;13.826;2023-04-24T04:57:45;11.40;;;10.70;;
1276;SDS011;631;51.024;13.826;2023-04-24T05:00:13;11.83;;;11.03;;
1276;SDS011;631;51.024;13.826;2023-04-24T05:02:40;12.07;;;11.33;;
1276;SDS011;631;51.024;13.826;2023-04-24T05:05:06;12.80;;;12.10;;
1276;SDS011;631;51.024;13.826;2023-04-24T05:07:32;12.00;;;11.30;;
1276;SDS011;631;51.024;13.826;2023-04-24T05:09:58;12.17;;;11.37;;
1276;SDS011;631;51.024;13.826;2023-04-24T05:12:24;12.30;;;11.40;;
1276;SDS011;631;51.024;13.826;2023-04-24T05:14:49;11.77;;;11.07;;
1276;SDS011;631;51.024;13.826;2023-04-24T05:17:15;13.10;;;12.30;;
1276;SDS011;631;51.024;13.826;2023-04-24T05:19:41;12.33;;;11.50;;
1276;SDS011;631;51.024;13.826;2023-04-24T05:22:07;11.27;;;10.47;;
1276;SDS011;631;51.024;13.826;2023-04-24T05:24:33;12.17;;;11.40;;
1276;SDS011;631;51.024;13.826;2023-04-24T05:26:59;11.57;;;10.87;;
1276;SDS011;631;51.024;13.826;2023-04-24T05:29:25;11.73;;;11.13;;
1276;SDS011;631;51.024;13.826;2023-04-24T05:31:51;11.47;;;10.87;;
1276;SDS011;631;51.024;13.826;2023-04-24T05:34:17;10.50;;;9.90;;
1276;SDS011;631;51.024;13.826;2023-04-24T05:36:43;10.33;;;9.70;;
1276;SDS011;631;51.024;13.826;2023-04-24T05:39:09;9.80;;;9.30;;
1276;SDS011;631;51.024;13.826;2023-04-24T05:41:34;10.70;;;10.00;;
1276;SDS011;631;51.024;13.826;2023-04-24T05:44:00;11.03;;;10.43;;
1276;SDS011;631;51.024;13.826;2023-04-24T05:46:26;10.30;;;9.70;;
1276;SDS011;631;51.024;13.826;2023-04-24T05:48:51;10.67;;;10.10;;
1276;SDS011;631;51.024;13.826;2023-04-24T05:51:17;11.30;;;10.50;;
1276;SDS011;631;51.024;13.826;2023-04-24T05:53:42;11.30;;;10.60;;
1276;SDS011;631;51.024;13.826;2023-04-24T05:56:08;11.70;;;11.00;;
1276;SDS011;631;51.024;13.826;2023-04-24T05:58:34;12.10;;;11.40;;
1276;SDS011;631;51.024;13.826;2023-04-24T06:00:59;11.17;;;10.57;;
1276;SDS011;631;51.024;13.826;2023-04-24T06:03:26;10.73;;;10.13;;
1276;SDS011;631;51.024;13.826;2023-04-24T06:05:52;10.50;;;9.90;;
1276;SDS011;631;51.024;13.826;2023-04-24T06:08:18;10.00;;;9.50;;
1276;SDS011;631;51.024;13.826;2023-04-24T06:10:43;10.23;;;9.73;;
1276;SDS011;631;51.024;13.826;2023-04-24T06:13:10;9.77;;;9.27;;
1276;SDS011;631;51.024;13.826;2023-04-24T06:15:36;9.63;;;9.10;;
1276;SDS011;631;51.024;13.826;2023-04-24T06:18:02;10.57;;;10.03;;
1276;SDS011;631;51.024;13.826;2023-04-24T06:20:28;9.40;;;9.00;;
1276;SDS011;631;51.024;13.826;2023-04-24T06:22:54;9.40;;;9.00;;
1276;SDS011;631;51.024;13.826;2023-04-24T06:25:19;10.63;;;10.13;;
1276;SDS011;631;51.024;13.826;2023-04-24T06:27:45;9.30;;;8.80;;
1276;SDS011;631;51.024;13.826;2023-04-24T06:30:11;10.30;;;9.80;;
1276;SDS011;631;51.024;13.826;2023-04-24T06:32:37;10.73;;;10.23;;
1276;SDS011;631;51.024;13.826;2023-04-24T06:35:03;10.53;;;10.07;;
1276;SDS011;631;51.024;13.826;2023-04-24T06:37:29;9.90;;;9.47;;
1276;SDS011;631;51.024;13.826;2023-04-24T06:39:55;9.87;;;9.20;;
1276;SDS011;631;51.024;13.826;2023-04-24T06:42:20;9.40;;;9.00;;
1276;SDS011;631;51.024;13.826;2023-04-24T06:44:46;9.87;;;9.47;;
1276;SDS011;631;51.024;13.826;2023-04-24T06:47:12;8.23;;;7.83;;
1276;SDS011;631;51.024;13.826;2023-04-24T06:49:38;8.60;;;8.10;;
1276;SDS011;631;51.024;13.826;2023-04-24T06:52:05;8.40;;;8.00;;
1276;SDS011;631;51.024;13.826;2023-04-24T06:54:31;9.20;;;8.80;;
1276;SDS011;631;51.024;13.826;2023-04-24T06:56:57;8.90;;;8.50;;
1276;SDS011;631;51.024;13.826;2023-04-24T06:59:24;7.43;;;7.13;;
1276;SDS011;631;51.024;13.826;2023-04-24T07:01:50;8.77;;;8.37;;
1276;SDS011;631;51.024;13.826;2023-04-24T07:04:16;8.60;;;8.30;;
1276;SDS011;631;51.024;13.826;2023-04-24T07:06:42;8.07;;;7.77;;
1276;SDS011;631;51.024;13.826;2023-04-24T07:09:08;8.90;;;8.50;;
1276;SDS011;631;51.024;13.826;2023-04-24T07:11:34;8.00;;;7.70;;
1276;SDS011;631;51.024;13.826;2023-04-24T07:14:01;8.20;;;7.90;;
1276;SDS011;631;51.024;13.826;2023-04-24T07:16:27;8.80;;;8.40;;
1276;SDS011;631;51.024;13.826;2023-04-24T07:18:53;6.87;;;6.57;;
1276;SDS011;631;51.024;13.826;2023-04-24T07:21:18;7.50;;;7.20;;
1276;SDS011;631;51.024;13.826;2023-04-24T07:23:44;8.97;;;8.57;;
1276;SDS011;631;51.024;13.826;2023-04-24T07:26:10;8.00;;;7.70;;
1276;SDS011;631;51.024;13.826;2023-04-24T07:28:36;8.20;;;7.90;;
1276;SDS011;631;51.024;13.826;2023-04-24T07:31:01;8.40;;;8.10;;
1276;SDS011;631;51.024;13.826;2023-04-24T07:33:27;8.03;;;7.63;;
1276;SDS011;631;51.024;13.826;2023-04-24T07:35:52;9.87;;;9.47;;
1276;SDS011;631;51.024;13.826;2023-04-24T07:38:18;9.37;;;9.00;;
1276;SDS011;631;51.024;13.826;2023-04-24T07:40:46;8.73;;;8.33;;
1276;SDS011;631;51.024;13.826;2023-04-24T07:43:13;8.43;;;8.13;;
1276;SDS011;631;51.024;13.826;2023-04-24T07:45:38;9.10;;;8.73;;
1276;SDS011;631;51.024;13.826;2023-04-24T07:48:05;8.00;;;7.70;;
1276;SDS011;631;51.024;13.826;2023-04-24T07:50:30;8.90;;;8.60;;
1276;SDS011;631;51.024;13.826;2023-04-24T07:52:56;9.33;;;8.93;;
1276;SDS011;631;51.024;13.826;2023-04-24T07:55:22;8.77;;;8.47;;
1276;SDS011;631;51.024;13.826;2023-04-24T07:57:48;8.73;;;8.43;;
1276;SDS011;631;51.024;13.826;2023-04-24T08:00:14;9.30;;;8.90;;
1276;SDS011;631;51.024;13.826;2023-04-24T08:02:40;8.73;;;8.40;;
1276;SDS011;631;51.024;13.826;2023-04-24T08:05:06;8.90;;;8.60;;
1276;SDS011;631;51.024;13.826;2023-04-24T08:07:32;8.80;;;8.40;;
1276;SDS011;631;51.024;13.826;2023-04-24T08:09:58;8.83;;;8.47;;
1276;SDS011;631;51.024;13.826;2023-04-24T08:12:24;9.50;;;9.00;;
1276;SDS011;631;51.024;13.826;2023-04-24T08:14:50;9.60;;;9.20;;
1276;SDS011;631;51.024;13.826;2023-04-24T08:17:16;8.83;;;8.53;;
1276;SDS011;631;51.024;13.826;2023-04-24T08:19:42;8.80;;;8.50;;
1276;SDS011;631;51.024;13.826;2023-04-24T08:22:12;9.00;;;8.70;;
1276;SDS011;631;51.024;13.826;2023-04-24T08:24:38;9.57;;;9.07;;
1276;SDS011;631;51.024;13.826;2023-04-24T08:27:04;9.50;;;9.20;;
1276;SDS011;631;51.024;13.826;2023-04-24T08:29:29;7.60;;;7.37;;
1276;SDS011;631;51.024;13.826;2023-04-24T08:31:55;9.30;;;8.90;;
1276;SDS011;631;51.024;13.826;2023-04-24T08:34:21;9.10;;;8.70;;
1276;SDS011;631;51.024;13.826;2023-04-24T08:36:47;8.80;;;8.40;;
1276;SDS011;631;51.024;13.826;2023-04-24T08:39:12;8.10;;;7.80;;
1276;SDS011;631;51.024;13.826;2023-04-24T08:41:39;8.20;;;7.90;;
1276;SDS011;631;51.024;13.826;2023-04-24T08:44:07;8.30;;;7.90;;
1276;SDS011;631;51.024;13.826;2023-04-24T08:46:34;8.57;;;8.27;;
1276;SDS011;631;51.024;13.826;2023-04-24T08:49:01;8.87;;;8.53;;
1276;SDS011;631;51.024;13.826;2023-04-24T08:51:27;7.40;;;7.10;;
1276;SDS011;631;51.024;13.826;2023-04-24T08:53:55;8.30;;;8.00;;
1276;SDS011;631;51.024;13.826;2023-04-24T08:56:22;9.27;;;8.87;;
1276;SDS011;631;51.024;13.826;2023-04-24T08:58:50;8.47;;;8.07;;
1276;SDS011;631;51.024;13.826;2023-04-24T09:01:17;9.40;;;9.00;;
1276;SDS011;631;51.024;13.826;2023-04-24T09:03:44;9.50;;;9.10;;
1276;SDS011;631;51.024;13.826;2023-04-24T09:06:14;9.40;;;9.00;;
1276;SDS011;631;51.024;13.826;2023-04-24T09:08:41;8.93;;;8.60;;
1276;SDS011;631;51.024;13.826;2023-04-24T09:11:08;9.00;;;8.70;;
1276;SDS011;631;51.024;13.826;2023-04-24T09:13:34;8.30;;;8.00;;
1276;SDS011;631;51.024;13.826;2023-04-24T09:16:00;8.47;;;7.93;;
1276;SDS011;631;51.024;13.826;2023-04-24T09:18:26;9.47;;;9.07;;
1276;SDS011;631;51.024;13.826;2023-04-24T09:20:59;9.27;;;8.97;;
1276;SDS011;631;51.024;13.826;2023-04-24T09:23:30;9.33;;;8.80;;
1276;SDS011;631;51.024;13.826;2023-04-24T09:25:57;8.50;;;8.20;;
1276;SDS011;631;51.024;13.826;2023-04-24T09:28:25;8.20;;;7.90;;
1276;SDS011;631;51.024;13.826;2023-04-24T09:31:17;10.20;;;9.80;;
1276;SDS011;631;51.024;13.826;2023-04-24T09:34:03;9.00;;;8.70;;
1276;SDS011;631;51.024;13.826;2023-04-24T09:36:41;9.40;;;9.10;;
1276;SDS011;631;51.024;13.826;2023-04-24T09:39:08;8.90;;;8.60;;
1276;SDS011;631;51.024;13.826;2023-04-24T09:41:52;9.93;;;9.43;;
1276;SDS011;631;51.024;13.826;2023-04-24T09:44:22;9.70;;;9.30;;
1276;SDS011;631;51.024;13.826;2023-04-24T09:46:56;9.10;;;8.70;;
1276;SDS011;631;51.024;13.826;2023-04-24T09:49:23;9.70;;;9.20;;
1276;SDS011;631;51.024;13.826;2023-04-24T09:52:02;9.00;;;8.70;;
1276;SDS011;631;51.024;13.826;2023-04-24T09:54:29;10.00;;;9.60;;
1276;SDS011;631;51.024;13.826;2023-04-24T09:56:55;9.00;;;8.70;;
1276;SDS011;631;51.024;13.826;2023-04-24T09:59:21;8.67;;;8.37;;
1276;SDS011;631;51.024;13.826;2023-04-24T10:01:47;9.50;;;9.10;;
1276;SDS011;631;51.024;13.826;2023-04-24T10:04:21;9.67;;;9.37;;
1276;SDS011;631;51.024;13.826;2023-04-24T10:06:49;9.27;;;8.97;;
1276;SDS011;631;51.024;13.826;2023-04-24T10:09:16;7.97;;;7.67;;
1276;SDS011;631;51.024;13.826;2023-04-24T10:11:44;8.80;;;8.47;;
1276;SDS011;631;51.024;13.826;2023-04-24T10:14:12;9.20;;;8.90;;
1276;SDS011;631;51.024;13.826;2023-04-24T10:16:39;7.53;;;7.23;;
1276;SDS011;631;51.024;13.826;2023-04-24T10:19:05;8.40;;;8.10;;
1276;SDS011;631;51.024;13.826;2023-04-24T10:21:32;8.60;;;8.13;;
1276;SDS011;631;51.024;13.826;2023-04-24T10:23:59;8.70;;;8.40;;
1276;SDS011;631;51.024;13.826;2023-04-24T10:26:28;9.03;;;8.63;;
1276;SDS011;631;51.024;13.826;2023-04-24T10:28:54;8.70;;;8.40;;
1276;SDS011;631;51.024;13.826;2023-04-24T10:31:23;7.47;;;7.17;;
1276;SDS011;631;51.024;13.826;2023-04-24T10:33:49;8.77;;;8.47;;
1276;SDS011;631;51.024;13.826;2023-04-24T10:36:16;9.33;;;9.03;;
1276;SDS011;631;51.024;13.826;2023-04-24T10:38:43;9.50;;;9.20;;
1276;SDS011;631;51.024;13.826;2023-04-24T10:41:11;8.57;;;8.27;;
1276;SDS011;631;51.024;13.826;2023-04-24T10:43:44;10.40;;;10.00;;
1276;SDS011;631;51.024;13.826;2023-04-24T10:46:10;10.20;;;9.80;;
1276;SDS011;631;51.024;13.826;2023-04-24T10:48:44;10.13;;;9.67;;
1276;SDS011;631;51.024;13.826;2023-04-24T10:51:18;8.70;;;8.40;;
1276;SDS011;631;51.024;13.826;2023-04-24T10:53:47;9.73;;;9.33;;
1276;SDS011;631;51.024;13.826;2023-04-24T10:56:15;9.03;;;8.73;;
1276;SDS011;631;51.024;13.826;2023-04-24T10:58:43;8.80;;;8.50;;
1276;SDS011;631;51.024;13.826;2023-04-24T11:04:04;9.20;;;8.90;;
1276;SDS011;631;51.024;13.826;2023-04-24T11:06:30;9.70;;;9.30;;
1276;SDS011;631;51.024;13.826;2023-04-24T11:11:38;9.30;;;8.93;;
1276;SDS011;631;51.024;13.826;2023-04-24T11:14:09;9.70;;;9.30;;
1276;SDS011;631;51.024;13.826;2023-04-24T11:21:43;9.00;;;8.70;;
1276;SDS011;631;51.024;13.826;2023-04-24T11:26:54;9.57;;;9.17;;
1276;SDS011;631;51.024;13.826;2023-04-24T11:29:21;8.60;;;8.30;;
1276;SDS011;631;51.024;13.826;2023-04-24T11:31:47;8.57;;;8.27;;
1276;SDS011;631;51.024;13.826;2023-04-24T11:34:16;8.83;;;8.43;;
1276;SDS011;631;51.024;13.826;2023-04-24T11:36:43;8.40;;;8.00;;
1276;SDS011;631;51.024;13.826;2023-04-24T11:39:12;8.80;;;8.50;;
1276;SDS011;631;51.024;13.826;2023-04-24T11:41:38;8.30;;;8.00;;
1276;SDS011;631;51.024;13.826;2023-04-24T11:44:06;8.50;;;8.20;;
1276;SDS011;631;51.024;13.826;2023-04-24T11:46:33;8.27;;;7.93;;
1276;SDS011;631;51.024;13.826;2023-04-24T11:48:59;8.57;;;8.17;;
1276;SDS011;631;51.024;13.826;2023-04-24T11:51:28;8.57;;;8.27;;
1276;SDS011;631;51.024;13.826;2023-04-24T11:53:54;7.10;;;6.90;;
1276;SDS011;631;51.024;13.826;2023-04-24T11:56:21;8.53;;;8.23;;
1276;SDS011;631;51.024;13.826;2023-04-24T11:58:48;9.77;;;9.37;;
1276;SDS011;631;51.024;13.826;2023-04-24T12:01:13;9.27;;;8.77;;
1276;SDS011;631;51.024;13.826;2023-04-24T12:03:40;9.20;;;8.80;;
1276;SDS011;631;51.024;13.826;2023-04-24T12:06:09;9.50;;;9.10;;
1276;SDS011;631;51.024;13.826;2023-04-24T12:08:37;8.83;;;8.53;;
1276;SDS011;631;51.024;13.826;2023-04-24T12:11:04;7.73;;;7.43;;
1276;SDS011;631;51.024;13.826;2023-04-24T12:13:32;9.07;;;8.60;;
1276;SDS011;631;51.024;13.826;2023-04-24T12:15:58;8.90;;;8.50;;
1276;SDS011;631;51.024;13.826;2023-04-24T12:18:24;8.27;;;7.97;;
1276;SDS011;631;51.024;13.826;2023-04-24T12:20:50;8.27;;;7.97;;
1276;SDS011;631;51.024;13.826;2023-04-24T12:23:16;9.00;;;8.60;;
1276;SDS011;631;51.024;13.826;2023-04-24T12:25:59;9.27;;;8.97;;
1276;SDS011;631;51.024;13.826;2023-04-24T12:28:33;8.73;;;8.43;;
1276;SDS011;631;51.024;13.826;2023-04-24T12:31:03;9.17;;;8.83;;
1276;SDS011;631;51.024;13.826;2023-04-24T12:33:32;7.90;;;7.60;;
1276;SDS011;631;51.024;13.826;2023-04-24T12:36:00;9.27;;;8.97;;
1276;SDS011;631;51.024;13.826;2023-04-24T12:38:27;9.20;;;8.80;;
1276;SDS011;631;51.024;13.826;2023-04-24T12:41:06;8.17;;;7.87;;
1276;SDS011;631;51.024;13.826;2023-04-24T12:43:33;8.30;;;8.00;;
1276;SDS011;631;51.024;13.826;2023-04-24T12:45:59;8.30;;;8.00;;
1276;SDS011;631;51.024;13.826;2023-04-24T12:48:28;9.10;;;8.70;;
1276;SDS011;631;51.024;13.826;2023-04-24T12:50:54;9.03;;;8.63;;
1276;SDS011;631;51.024;13.826;2023-04-24T12:53:21;9.13;;;8.73;;
1276;SDS011;631;51.024;13.826;2023-04-24T12:55:47;8.10;;;7.80;;
1276;SDS011;631;51.024;13.826;2023-04-24T12:58:18;9.30;;;8.90;;
1276;SDS011;631;51.024;13.826;2023-04-24T13:00:45;8.40;;;8.10;;
1276;SDS011;631;51.024;13.826;2023-04-24T13:03:11;9.17;;;8.77;;
1276;SDS011;631;51.024;13.826;2023-04-24T13:05:37;8.50;;;8.20;;
1276;SDS011;631;51.024;13.826;2023-04-24T13:08:02;8.40;;;8.10;;
1276;SDS011;631;51.024;13.826;2023-04-24T13:10:28;7.90;;;7.60;;
1276;SDS011;631;51.024;13.826;2023-04-24T13:12:54;8.47;;;8.17;;
1276;SDS011;631;51.024;13.826;2023-04-24T13:15:19;10.00;;;9.60;;
1276;SDS011;631;51.024;13.826;2023-04-24T13:17:45;9.30;;;8.90;;
1276;SDS011;631;51.024;13.826;2023-04-24T13:20:11;9.13;;;8.63;;
1276;SDS011;631;51.024;13.826;2023-04-24T13:22:36;8.63;;;8.33;;
1276;SDS011;631;51.024;13.826;2023-04-24T13:25:02;8.70;;;8.40;;
1276;SDS011;631;51.024;13.826;2023-04-24T13:27:28;8.13;;;7.83;;
1276;SDS011;631;51.024;13.826;2023-04-24T13:29:54;8.77;;;8.47;;
1276;SDS011;631;51.024;13.826;2023-04-24T13:32:19;8.43;;;8.13;;
1276;SDS011;631;51.024;13.826;2023-04-24T13:34:45;8.23;;;7.93;;
1276;SDS011;631;51.024;13.826;2023-04-24T13:37:11;8.93;;;8.63;;
1276;SDS011;631;51.024;13.826;2023-04-24T13:39:36;9.53;;;9.13;;
1276;SDS011;631;51.024;13.826;2023-04-24T13:42:02;8.13;;;7.83;;
1276;SDS011;631;51.024;13.826;2023-04-24T13:44:28;9.10;;;8.70;;
1276;SDS011;631;51.024;13.826;2023-04-24T13:46:54;9.23;;;8.87;;
1276;SDS011;631;51.024;13.826;2023-04-24T13:49:22;8.50;;;8.10;;
1276;SDS011;631;51.024;13.826;2023-04-24T13:51:49;8.43;;;8.13;;
1276;SDS011;631;51.024;13.826;2023-04-24T13:54:15;8.93;;;8.63;;
1276;SDS011;631;51.024;13.826;2023-04-24T13:56:41;9.57;;;9.17;;
1276;SDS011;631;51.024;13.826;2023-04-24T13:59:07;8.90;;;8.60;;
1276;SDS011;631;51.024;13.826;2023-04-24T14:01:33;9.47;;;8.87;;
1276;SDS011;631;51.024;13.826;2023-04-24T14:03:59;9.27;;;8.87;;
1276;SDS011;631;51.024;13.826;2023-04-24T14:06:24;10.23;;;9.83;;
1276;SDS011;631;51.024;13.826;2023-04-24T14:08:50;8.03;;;7.73;;
1276;SDS011;631;51.024;13.826;2023-04-24T14:11:16;9.77;;;9.37;;
1276;SDS011;631;51.024;13.826;2023-04-24T14:13:43;9.03;;;8.73;;
1276;SDS011;631;51.024;13.826;2023-04-24T14:16:10;10.20;;;9.77;;
1276;SDS011;631;51.024;13.826;2023-04-24T14:18:36;9.50;;;9.00;;
1276;SDS011;631;51.024;13.826;2023-04-24T14:21:02;10.10;;;9.70;;
1276;SDS011;631;51.024;13.826;2023-04-24T14:23:28;9.53;;;9.13;;
1276;SDS011;631;51.024;13.826;2023-04-24T14:25:54;9.10;;;8.70;;
1276;SDS011;631;51.024;13.826;2023-04-24T14:28:19;9.40;;;9.10;;
1276;SDS011;631;51.024;13.826;2023-04-24T14:30:46;9.00;;;8.70;;
1276;SDS011;631;51.024;13.826;2023-04-24T14:33:12;9.30;;;9.00;;
1276;SDS011;631;51.024;13.826;2023-04-24T14:35:38;9.37;;;8.97;;
1276;SDS011;631;51.024;13.826;2023-04-24T14:38:05;9.23;;;8.90;;
1276;SDS011;631;51.024;13.826;2023-04-24T14:40:31;8.97;;;8.57;;
1276;SDS011;631;51.024;13.826;2023-04-24T14:42:57;7.87;;;7.57;;
1276;SDS011;631;51.024;13.826;2023-04-24T14:45:23;9.20;;;8.73;;
1276;SDS011;631;51.024;13.826;2023-04-24T14:47:49;9.40;;;9.00;;
1276;SDS011;631;51.024;13.826;2023-04-24T14:50:15;9.13;;;8.80;;
1276;SDS011;631;51.024;13.826;2023-04-24T14:52:41;9.40;;;9.00;;
1276;SDS011;631;51.024;13.826;2023-04-24T14:55:06;9.90;;;9.50;;
1276;SDS011;631;51.024;13.826;2023-04-24T14:57:33;9.40;;;9.00;;
1276;SDS011;631;51.024;13.826;2023-04-24T14:59:59;9.00;;;8.70;;
1276;SDS011;631;51.024;13.826;2023-04-24T15:02:25;9.93;;;9.53;;
1276;SDS011;631;51.024;13.826;2023-04-24T15:04:51;9.83;;;9.33;;
1276;SDS011;631;51.024;13.826;2023-04-24T15:07:18;9.10;;;8.70;;
1276;SDS011;631;51.024;13.826;2023-04-24T15:09:45;9.60;;;9.20;;
1276;SDS011;631;51.024;13.826;2023-04-24T15:12:12;8.77;;;8.37;;